createdAt,value
2018-10-05T00:00:11.704Z,11.60
2018-10-05T00:02:40.215Z,7.63
2018-10-05T00:05:08.873Z,11.60
2018-10-05T00:07:37.468Z,9.97
2018-10-05T00:10:06.126Z,7.90
2018-10-05T00:12:34.815Z,7.37
2018-10-05T00:15:03.428Z,7.43
2018-10-05T00:17:31.992Z,9.20
2018-10-05T00:20:00.806Z,6.47
2018-10-05T00:22:29.369Z,9.07
2018-10-05T00:24:57.933Z,15.27
2018-10-05T00:27:26.473Z,20.57
2018-10-05T00:29:55.108Z,10.03
2018-10-05T00:32:23.689Z,10.07
2018-10-05T00:34:52.232Z,12.30
2018-10-05T00:37:20.756Z,11.10
2018-10-05T00:39:49.320Z,11.30
2018-10-05T00:42:17.849Z,8.43
2018-10-05T00:44:46.400Z,8.37
2018-10-05T00:47:14.972Z,10.90
2018-10-05T00:49:43.612Z,12.40
2018-10-05T00:52:12.160Z,8.90
2018-10-05T00:54:40.977Z,7.30
2018-10-05T00:57:09.503Z,10.13
2018-10-05T00:59:38.083Z,7.00
2018-10-05T01:02:06.944Z,9.40
2018-10-05T01:04:35.492Z,7.67
2018-10-05T01:07:04.112Z,13.57
2018-10-05T01:09:32.744Z,8.73
2018-10-05T01:12:01.266Z,8.30
2018-10-05T01:14:29.853Z,8.73
2018-10-05T01:16:58.636Z,8.30
2018-10-05T01:19:27.188Z,8.03
2018-10-05T01:21:55.721Z,10.73
2018-10-05T01:24:24.299Z,16.20
2018-10-05T01:26:52.959Z,11.77
2018-10-05T01:29:21.497Z,10.63
2018-10-05T01:31:50.076Z,8.30
2018-10-05T01:34:18.612Z,10.43
2018-10-05T01:36:49.158Z,12.00
2018-10-05T01:39:17.691Z,8.07
2018-10-05T01:41:46.268Z,10.20
2018-10-05T01:44:14.794Z,14.90
2018-10-05T01:46:43.371Z,12.63
2018-10-05T01:49:11.915Z,9.10
2018-10-05T01:51:40.461Z,8.97
2018-10-05T01:54:08.987Z,12.00
2018-10-05T01:56:37.544Z,13.97
2018-10-05T01:59:06.197Z,5.70
2018-10-05T02:01:34.746Z,7.10
2018-10-05T02:04:03.431Z,7.07
2018-10-05T02:06:32.032Z,11.97
2018-10-05T02:09:00.598Z,6.17
2018-10-05T02:11:29.116Z,7.20
2018-10-05T02:13:57.692Z,8.73
2018-10-05T02:16:26.203Z,7.60
2018-10-05T02:18:54.840Z,7.90
2018-10-05T02:21:23.378Z,9.00
2018-10-05T02:23:51.956Z,6.73
2018-10-05T02:26:20.699Z,6.63
2018-10-05T02:28:49.460Z,8.80
2018-10-05T02:31:18.123Z,10.90
2018-10-05T02:33:46.702Z,8.17
2018-10-05T02:36:15.636Z,13.80
2018-10-05T02:38:44.612Z,11.90
2018-10-05T02:41:14.280Z,13.43
2018-10-05T02:43:42.812Z,14.27
2018-10-05T02:46:11.443Z,10.50
2018-10-05T02:48:40.117Z,7.63
2018-10-05T02:51:08.813Z,8.73
2018-10-05T02:53:37.496Z,9.80
2018-10-05T02:56:06.180Z,9.67
2018-10-05T02:58:34.718Z,13.10
2018-10-05T03:01:14.248Z,11.67
2018-10-05T03:03:42.777Z,13.57
2018-10-05T03:06:11.313Z,9.53
2018-10-05T03:08:39.852Z,11.03
2018-10-05T03:11:08.383Z,12.53
2018-10-05T03:13:36.924Z,13.13
2018-10-05T03:16:05.479Z,10.20
2018-10-05T03:18:34.028Z,9.10
2018-10-05T03:21:02.897Z,6.77
2018-10-05T03:23:31.452Z,10.40
2018-10-05T03:26:00.026Z,14.30
2018-10-05T03:28:28.580Z,12.20
2018-10-05T03:30:57.107Z,7.80
2018-10-05T03:33:25.665Z,7.67
2018-10-05T03:35:54.217Z,7.97
2018-10-05T03:38:22.739Z,8.47
2018-10-05T03:40:51.304Z,10.10
2018-10-05T03:43:19.808Z,7.20
2018-10-05T03:45:48.324Z,9.10
2018-10-05T03:48:16.961Z,12.67
2018-10-05T03:50:45.501Z,9.03
2018-10-05T03:53:14.057Z,15.80
2018-10-05T03:55:42.606Z,13.80
2018-10-05T03:58:11.164Z,8.70
2018-10-05T04:00:39.700Z,8.93
2018-10-05T04:03:08.295Z,13.83
2018-10-05T04:05:36.836Z,17.97
2018-10-05T04:08:05.507Z,11.50
2018-10-05T04:10:34.043Z,9.47
2018-10-05T04:13:02.642Z,8.27
2018-10-05T04:15:31.325Z,10.10
2018-10-05T04:17:59.911Z,16.20
2018-10-05T04:20:28.449Z,7.20
2018-10-05T04:22:56.991Z,17.37
2018-10-05T04:25:25.563Z,11.80
2018-10-05T04:27:54.111Z,7.00
2018-10-05T04:30:22.717Z,7.13
2018-10-05T04:32:51.283Z,11.77
2018-10-05T04:35:19.844Z,15.50
2018-10-05T04:37:48.387Z,8.63
2018-10-05T04:40:17.579Z,8.90
2018-10-05T04:42:46.145Z,7.80
2018-10-05T04:45:14.703Z,10.57
2018-10-05T04:47:43.216Z,8.27
2018-10-05T04:50:11.761Z,8.03
2018-10-05T04:52:40.421Z,13.03
2018-10-05T04:55:08.980Z,10.90
2018-10-05T04:57:37.558Z,9.53
2018-10-05T05:00:06.248Z,9.87
2018-10-05T05:02:35.676Z,6.73
2018-10-05T05:05:04.240Z,6.33
2018-10-05T05:07:32.830Z,10.10
2018-10-05T05:10:01.439Z,11.20
2018-10-05T05:12:29.986Z,7.70
2018-10-05T05:14:58.546Z,13.73
2018-10-05T05:17:27.165Z,11.23
2018-10-05T05:19:55.712Z,11.93
2018-10-05T05:22:24.223Z,8.03
2018-10-05T05:24:52.795Z,10.33
2018-10-05T05:27:21.315Z,7.23
2018-10-05T05:29:49.852Z,10.87
2018-10-05T05:32:18.596Z,9.03
2018-10-05T05:34:47.148Z,10.83
2018-10-05T05:37:15.733Z,10.13
2018-10-05T05:39:44.294Z,7.87
2018-10-05T05:42:12.828Z,14.40
2018-10-05T05:44:41.367Z,9.00
2018-10-05T05:47:10.132Z,14.43
2018-10-05T05:49:38.808Z,12.50
2018-10-05T05:52:07.552Z,13.57
2018-10-05T05:54:36.138Z,15.47
2018-10-05T05:57:04.659Z,9.90
2018-10-05T05:59:33.239Z,9.37
2018-10-05T06:02:01.915Z,7.87
2018-10-05T06:04:30.464Z,7.30
2018-10-05T06:06:59.057Z,9.73
2018-10-05T06:09:27.657Z,10.17
2018-10-05T06:11:56.220Z,10.13
2018-10-05T06:14:24.773Z,14.70
2018-10-05T06:16:53.310Z,20.20
2018-10-05T06:19:21.836Z,13.90
2018-10-05T06:21:50.513Z,26.53
2018-10-05T06:24:18.992Z,33.00
2018-10-05T06:26:52.599Z,15.87
2018-10-05T06:29:21.149Z,20.57
2018-10-05T06:31:49.746Z,14.37
2018-10-05T06:34:18.274Z,12.63
2018-10-05T06:36:46.840Z,22.10
2018-10-05T06:39:15.451Z,12.77
2018-10-05T06:41:43.913Z,9.40
2018-10-05T06:44:12.465Z,9.77
2018-10-05T06:46:41.020Z,14.13
2018-10-05T06:49:09.592Z,10.17
2018-10-05T06:51:38.150Z,9.77
2018-10-05T06:54:06.740Z,15.73
2018-10-05T06:56:35.276Z,11.43
2018-10-05T06:59:03.808Z,13.63
2018-10-05T07:01:32.442Z,11.27
2018-10-05T07:04:00.903Z,7.70
2018-10-05T07:06:29.479Z,12.77
2018-10-05T07:08:58.000Z,9.40
2018-10-05T07:11:26.626Z,15.53
2018-10-05T07:13:55.216Z,10.63
2018-10-05T07:16:23.793Z,18.57
2018-10-05T07:21:55.016Z,28.83
2018-10-05T07:24:23.563Z,24.77
2018-10-05T07:26:52.099Z,12.47
2018-10-05T07:29:20.668Z,8.70
2018-10-05T07:31:49.276Z,14.67
2018-10-05T07:34:18.047Z,12.33
2018-10-05T07:36:46.623Z,26.63
2018-10-05T07:39:15.160Z,17.50
2018-10-05T07:41:43.744Z,14.33
2018-10-05T07:44:12.277Z,14.73
2018-10-05T07:46:40.837Z,14.43
2018-10-05T07:49:09.396Z,19.13
2018-10-05T07:51:37.985Z,15.47
2018-10-05T07:54:06.573Z,12.90
2018-10-05T07:56:35.115Z,13.70
2018-10-05T07:59:03.674Z,19.70
2018-10-05T08:01:32.229Z,16.70
2018-10-05T08:04:00.837Z,16.50
2018-10-05T08:06:29.403Z,12.97
2018-10-05T08:08:57.945Z,14.90
2018-10-05T08:11:26.484Z,16.97
2018-10-05T08:13:55.063Z,11.70
2018-10-05T08:16:23.601Z,20.40
2018-10-05T08:18:52.270Z,23.20
2018-10-05T08:21:20.896Z,15.33
2018-10-05T08:23:49.761Z,15.03
2018-10-05T08:26:18.335Z,34.00
2018-10-05T08:28:47.196Z,30.73
2018-10-05T08:31:15.764Z,22.07
2018-10-05T08:33:44.388Z,23.40
2018-10-05T08:36:12.903Z,26.87
2018-10-05T08:38:41.544Z,25.73
2018-10-05T08:41:10.093Z,32.23
2018-10-05T08:43:38.776Z,34.10
2018-10-05T08:46:07.400Z,23.70
2018-10-05T08:48:35.946Z,19.30
2018-10-05T08:51:04.503Z,18.87
2018-10-05T08:53:33.060Z,20.00
2018-10-05T08:56:01.650Z,20.23
2018-10-05T08:58:30.268Z,21.40
2018-10-05T09:00:58.801Z,15.03
2018-10-05T09:03:27.365Z,15.80
2018-10-05T09:05:56.084Z,16.93
2018-10-05T09:08:24.489Z,13.17
2018-10-05T09:10:53.056Z,13.23
2018-10-05T09:13:21.585Z,9.80
2018-10-05T09:15:50.107Z,22.27
2018-10-05T09:18:18.867Z,14.60
2018-10-05T09:20:47.388Z,15.63
2018-10-05T09:23:15.929Z,14.30
2018-10-05T09:25:44.446Z,13.53
2018-10-05T09:28:12.993Z,13.90
2018-10-05T09:30:41.524Z,17.43
2018-10-05T09:33:10.076Z,13.60
2018-10-05T09:35:38.684Z,11.20
2018-10-05T09:38:07.234Z,11.20
2018-10-05T09:40:35.756Z,9.73
2018-10-05T09:43:04.305Z,9.07
2018-10-05T09:45:32.840Z,11.83
2018-10-05T09:48:01.437Z,12.77
2018-10-05T09:50:29.955Z,7.63
2018-10-05T09:52:58.527Z,9.77
2018-10-05T09:55:27.101Z,14.03
2018-10-05T09:57:55.649Z,7.90
2018-10-05T10:00:40.562Z,7.43
2018-10-05T10:03:14.203Z,9.97
2018-10-05T10:05:42.743Z,11.43
2018-10-05T10:08:11.437Z,9.43
2018-10-05T10:10:39.979Z,14.20
2018-10-05T10:13:08.540Z,12.03
2018-10-05T10:15:37.120Z,11.07
2018-10-05T10:18:05.944Z,11.03
2018-10-05T10:20:34.524Z,8.90
2018-10-05T10:23:03.052Z,8.80
2018-10-05T10:25:31.657Z,10.00
2018-10-05T10:28:00.251Z,11.93
2018-10-05T10:30:28.742Z,12.67
2018-10-05T10:32:57.277Z,14.00
2018-10-05T10:35:25.823Z,8.50
2018-10-05T10:37:54.490Z,11.33
2018-10-05T10:40:23.015Z,7.23
2018-10-05T10:42:51.641Z,9.13
2018-10-05T10:45:20.175Z,8.63
2018-10-05T10:47:48.763Z,10.80
2018-10-05T10:50:17.292Z,17.57
2018-10-05T10:52:45.815Z,11.23
2018-10-05T10:55:14.363Z,7.50
2018-10-05T10:57:42.900Z,11.00
2018-10-05T11:00:11.525Z,10.10
2018-10-05T11:02:40.072Z,8.70
2018-10-05T11:05:08.623Z,5.63
2018-10-05T11:10:28.192Z,7.70
2018-10-05T11:12:56.719Z,7.83
2018-10-05T11:15:25.325Z,9.30
2018-10-05T11:17:57.880Z,14.73
2018-10-05T11:20:26.536Z,12.80
2018-10-05T11:22:55.068Z,9.30
2018-10-05T11:25:23.610Z,9.47
2018-10-05T11:27:52.227Z,10.30
2018-10-05T11:30:20.779Z,6.20
2018-10-05T11:32:49.337Z,11.80
2018-10-05T11:35:17.959Z,17.67
2018-10-05T11:37:46.484Z,8.57
2018-10-05T11:40:15.084Z,8.33
2018-10-05T11:42:43.655Z,11.90
2018-10-05T11:45:12.209Z,11.57
2018-10-05T11:47:40.736Z,7.80
2018-10-05T11:50:09.339Z,15.20
2018-10-05T11:52:37.859Z,15.90
2018-10-05T11:55:06.434Z,14.73
2018-10-05T11:57:34.960Z,22.77
2018-10-05T12:00:06.910Z,7.80
2018-10-05T12:02:35.532Z,9.53
2018-10-05T12:05:04.147Z,8.70
2018-10-05T12:07:32.696Z,7.03
2018-10-05T12:10:02.008Z,13.63
2018-10-05T12:12:30.567Z,13.00
2018-10-05T12:14:59.084Z,8.20
2018-10-05T12:17:27.854Z,8.43
2018-10-05T12:19:56.440Z,14.30
2018-10-05T12:22:25.027Z,10.40
2018-10-05T12:24:53.571Z,14.00
2018-10-05T12:27:22.125Z,10.90
2018-10-05T12:29:50.714Z,6.00
2018-10-05T12:32:19.232Z,12.00
2018-10-05T12:34:47.788Z,11.20
2018-10-05T12:37:16.466Z,11.30
2018-10-05T12:39:44.920Z,7.30
2018-10-05T12:42:13.464Z,8.47
2018-10-05T12:44:42.159Z,11.80
2018-10-05T12:47:10.713Z,8.67
2018-10-05T12:49:39.280Z,6.53
2018-10-05T12:52:07.861Z,10.10
2018-10-05T12:54:36.443Z,12.13
2018-10-05T12:57:05.051Z,11.73
2018-10-05T12:59:33.596Z,22.80
2018-10-05T13:02:02.142Z,6.87
2018-10-05T13:04:30.665Z,8.90
2018-10-05T13:06:59.224Z,9.17
2018-10-05T13:09:27.759Z,6.70
2018-10-05T13:11:56.308Z,7.60
2018-10-05T13:14:24.853Z,12.03
2018-10-05T13:16:53.414Z,5.50
2018-10-05T13:19:21.968Z,3.13
2018-10-05T13:21:50.531Z,5.37
2018-10-05T13:24:19.059Z,8.27
2018-10-05T13:26:47.608Z,3.23
2018-10-05T13:29:16.156Z,8.20
2018-10-05T13:31:44.700Z,4.90
2018-10-05T13:34:13.339Z,5.70
2018-10-05T13:36:41.800Z,5.37
2018-10-05T13:39:11.232Z,5.57
2018-10-05T13:41:40.266Z,6.13
2018-10-05T13:44:08.806Z,5.40
2018-10-05T13:46:37.363Z,14.23
2018-10-05T13:49:06.720Z,8.40
2018-10-05T13:51:36.568Z,5.83
2018-10-05T13:54:05.393Z,8.03
2018-10-05T13:56:34.356Z,11.93
2018-10-05T13:59:02.925Z,7.77
2018-10-05T14:01:31.472Z,8.00
2018-10-05T14:04:00.045Z,5.93
2018-10-05T14:06:28.614Z,8.27
2018-10-05T14:08:57.930Z,8.47
2018-10-05T14:11:26.546Z,6.10
2018-10-05T14:13:55.124Z,7.57
2018-10-05T14:19:13.799Z,9.60
2018-10-05T14:21:42.340Z,5.70
2018-10-05T14:24:10.948Z,9.90
2018-10-05T14:26:39.500Z,11.53
2018-10-05T14:29:08.077Z,9.07
2018-10-05T14:31:36.625Z,11.63
2018-10-05T14:34:05.183Z,6.50
2018-10-05T14:36:33.735Z,10.63
2018-10-05T14:39:02.352Z,5.60
2018-10-05T14:41:30.997Z,11.53
2018-10-05T14:43:59.504Z,10.20
2018-10-05T14:46:28.061Z,7.40
2018-10-05T14:48:56.665Z,9.00
2018-10-05T14:51:25.254Z,5.67
2018-10-05T14:53:53.799Z,7.73
2018-10-05T14:56:22.363Z,10.90
2018-10-05T14:58:50.994Z,6.47
2018-10-05T15:01:19.574Z,8.00
2018-10-05T15:03:48.151Z,7.93
2018-10-05T15:06:16.703Z,8.50
2018-10-05T15:08:45.242Z,5.73
2018-10-05T15:11:13.788Z,7.10
2018-10-05T15:13:42.429Z,7.00
2018-10-05T15:16:11.113Z,12.93
2018-10-05T15:18:39.660Z,12.70
2018-10-05T15:21:08.308Z,13.00
2018-10-05T15:23:36.987Z,9.57
2018-10-05T15:26:05.615Z,16.00
2018-10-05T15:28:34.187Z,19.10
2018-10-05T15:31:02.819Z,20.33
2018-10-05T15:33:31.389Z,15.60
2018-10-05T15:35:59.930Z,13.07
2018-10-05T15:38:28.495Z,19.57
2018-10-05T15:40:57.084Z,20.37
2018-10-05T15:43:25.646Z,21.30
2018-10-05T15:46:08.347Z,15.00
2018-10-05T15:51:27.088Z,11.87
2018-10-05T15:53:55.636Z,8.53
2018-10-05T15:56:24.178Z,14.63
2018-10-05T15:58:52.754Z,9.83
2018-10-05T16:01:21.278Z,7.63
2018-10-05T16:03:49.836Z,16.40
2018-10-05T16:06:18.456Z,37.27
2018-10-05T16:08:46.995Z,62.80
2018-10-05T16:11:15.567Z,22.60
2018-10-05T16:13:44.113Z,25.03
2018-10-05T16:16:12.713Z,30.40
2018-10-05T17:56:10.341Z,10.00
2018-10-05T17:58:38.871Z,9.87
2018-10-05T18:01:07.725Z,7.83
2018-10-05T18:03:37.078Z,8.60
2018-10-05T18:06:05.622Z,10.80
2018-10-05T18:08:34.216Z,11.87
2018-10-05T18:11:02.752Z,8.50
2018-10-05T18:13:31.306Z,9.60
2018-10-05T18:15:59.924Z,9.67
2018-10-05T18:18:28.508Z,10.73
2018-10-05T18:20:57.048Z,9.97
2018-10-05T18:23:25.640Z,14.57
2018-10-05T18:25:54.204Z,12.00
2018-10-05T18:28:22.732Z,11.30
2018-10-05T18:30:57.243Z,15.60
2018-10-05T18:33:25.796Z,14.40
2018-10-05T18:35:54.567Z,11.43
2018-10-05T18:38:23.136Z,10.47
2018-10-05T18:40:51.680Z,9.33
2018-10-05T18:43:20.228Z,9.63
2018-10-05T18:45:48.798Z,13.80
2018-10-05T18:48:17.343Z,15.23
2018-10-05T18:50:45.935Z,13.57
2018-10-05T18:53:14.516Z,12.93
2018-10-05T18:55:43.068Z,10.83
2018-10-05T18:58:11.632Z,12.40
2018-10-05T19:00:40.305Z,13.73
2018-10-05T19:03:08.889Z,12.37
2018-10-05T19:05:37.525Z,15.00
2018-10-05T19:08:06.467Z,11.83
2018-10-05T19:10:34.993Z,10.37
2018-10-05T19:13:03.621Z,10.80
2018-10-05T19:15:32.162Z,13.50
2018-10-05T19:18:00.691Z,19.13
2018-10-05T19:20:29.409Z,21.30
2018-10-05T19:22:58.113Z,21.30
2018-10-05T19:25:26.732Z,24.27
2018-10-05T19:27:55.289Z,22.43
2018-10-05T19:30:23.836Z,19.23
2018-10-05T19:32:52.425Z,15.43
2018-10-05T19:35:20.951Z,14.83
2018-10-05T19:37:49.819Z,16.00
2018-10-05T19:40:18.798Z,12.70
2018-10-05T19:42:47.702Z,12.83
2018-10-05T19:45:16.395Z,10.93
2018-10-05T19:47:45.215Z,10.60
2018-10-05T19:50:13.827Z,13.87
2018-10-05T19:52:42.382Z,13.13
2018-10-05T19:55:10.915Z,15.50
2018-10-05T19:57:39.477Z,11.90
2018-10-05T20:00:08.061Z,9.50
2018-10-05T20:02:37.498Z,13.80
2018-10-05T20:05:06.135Z,10.90
2018-10-05T20:07:34.695Z,18.60
2018-10-05T20:10:03.334Z,17.80
2018-10-05T20:12:31.872Z,9.83
2018-10-05T20:15:00.483Z,12.80
2018-10-05T20:17:29.020Z,13.63
2018-10-05T20:19:57.588Z,14.80
2018-10-05T20:22:26.168Z,8.43
2018-10-05T20:24:54.729Z,11.30
2018-10-05T20:27:23.268Z,9.30
2018-10-05T20:29:51.863Z,10.57
2018-10-05T20:32:20.433Z,8.17
2018-10-05T20:34:48.993Z,10.47
2018-10-05T20:37:17.614Z,10.90
2018-10-05T20:39:46.159Z,11.07
2018-10-05T20:42:14.712Z,14.87
2018-10-05T20:44:43.264Z,12.83
2018-10-05T20:47:11.864Z,15.80
2018-10-05T20:49:40.427Z,9.00
2018-10-05T20:52:08.982Z,11.40
2018-10-05T20:54:37.509Z,12.03
2018-10-05T20:57:06.116Z,15.10
2018-10-05T20:59:34.656Z,11.50
2018-10-05T21:02:03.298Z,10.47
2018-10-05T21:04:31.879Z,9.90
2018-10-05T21:07:00.427Z,16.53
2018-10-05T21:09:28.974Z,11.53
2018-10-05T21:11:57.551Z,13.03
2018-10-05T21:14:26.131Z,13.63
2018-10-05T21:16:54.671Z,13.63
2018-10-05T21:19:23.223Z,10.47
2018-10-05T21:21:51.771Z,12.27
2018-10-05T21:24:20.296Z,11.80
2018-10-05T21:26:48.844Z,10.83
2018-10-05T21:29:20.321Z,10.53
2018-10-05T21:31:48.859Z,11.97
2018-10-05T21:34:17.384Z,11.87
2018-10-05T21:36:45.978Z,10.53
2018-10-05T21:39:14.540Z,12.00
2018-10-05T21:41:43.177Z,11.63
2018-10-05T21:44:11.784Z,10.43
2018-10-05T21:46:40.677Z,10.13
2018-10-05T21:49:09.215Z,9.57
2018-10-05T21:51:37.797Z,9.07
2018-10-05T21:54:06.425Z,9.23
2018-10-05T21:56:34.971Z,11.30
2018-10-05T21:59:03.646Z,11.10
2018-10-05T22:01:32.320Z,13.03
2018-10-05T22:04:00.852Z,8.30
2018-10-05T22:06:29.396Z,8.57
2018-10-05T22:08:57.916Z,12.23
2018-10-05T22:11:26.452Z,13.40
2018-10-05T22:13:54.996Z,9.77
2018-10-05T22:16:23.515Z,9.60
